sensor_id;sensor_type;location;lat;lon;timestamp;pressure;altitude;pressure_sealevel;temperature;humidity
42859;BME280;28505;56.970;40.998;2023-04-30T00:01:57;100505.78;;;0.59;100.00
42859;BME280;28505;56.970;40.998;2023-04-30T00:07:19;100490.38;;;0.49;100.00
42859;BME280;28505;56.970;40.998;2023-04-30T00:12:41;100492.78;;;0.51;100.00
42859;BME280;28505;56.970;40.998;2023-04-30T00:18:03;100503.97;;;0.59;100.00
42859;BME280;28505;56.970;40.998;2023-04-30T00:23:27;100502.94;;;0.60;100.00
42859;BME280;28505;56.970;40.998;2023-04-30T00:28:50;100504.78;;;0.60;100.00
42859;BME280;28505;56.970;40.998;2023-04-30T00:34:13;100502.97;;;0.54;100.00
42859;BME280;28505;56.970;40.998;2023-04-30T00:39:36;100509.50;;;0.51;100.00
42859;BME280;28505;56.970;40.998;2023-04-30T00:44:59;100506.47;;;0.47;100.00
42859;BME280;28505;56.970;40.998;2023-04-30T00:50:23;100504.66;;;0.41;100.00
42859;BME280;28505;56.970;40.998;2023-04-30T00:55:45;100507.59;;;0.33;100.00
42859;BME280;28505;56.970;40.998;2023-04-30T01:01:10;100519.81;;;0.34;100.00
42859;BME280;28505;56.970;40.998;2023-04-30T01:06:32;100504.75;;;0.28;100.00
42859;BME280;28505;56.970;40.998;2023-04-30T01:12:15;100497.44;;;0.23;100.00
42859;BME280;28505;56.970;40.998;2023-04-30T01:28:59;100514.75;;;0.26;100.00
42859;BME280;28505;56.970;40.998;2023-04-30T01:34:23;100519.22;;;0.26;100.00
42859;BME280;28505;56.970;40.998;2023-04-30T01:46:03;100529.84;;;0.26;100.00
42859;BME280;28505;56.970;40.998;2023-04-30T01:51:39;100529.44;;;0.22;100.00
42859;BME280;28505;56.970;40.998;2023-04-30T01:57:05;100530.91;;;0.18;100.00
42859;BME280;28505;56.970;40.998;2023-04-30T02:02:28;100529.72;;;0.14;100.00
42859;BME280;28505;56.970;40.998;2023-04-30T02:07:51;100521.56;;;0.09;100.00
42859;BME280;28505;56.970;40.998;2023-04-30T02:13:13;100542.13;;;0.20;100.00
42859;BME280;28505;56.970;40.998;2023-04-30T02:18:36;100529.28;;;0.17;100.00
42859;BME280;28505;56.970;40.998;2023-04-30T02:23:58;100545.38;;;0.22;100.00
42859;BME280;28505;56.970;40.998;2023-04-30T02:29:21;100535.41;;;0.17;100.00
42859;BME280;28505;56.970;40.998;2023-04-30T02:34:43;100526.44;;;0.12;100.00
42859;BME280;28505;56.970;40.998;2023-04-30T02:40:06;100522.78;;;0.06;100.00
42859;BME280;28505;56.970;40.998;2023-04-30T02:45:30;100543.53;;;0.16;100.00
42859;BME280;28505;56.970;40.998;2023-04-30T02:50:53;100554.09;;;0.29;100.00
42859;BME280;28505;56.970;40.998;2023-04-30T02:56:16;100556.53;;;0.37;100.00
42859;BME280;28505;56.970;40.998;2023-04-30T03:01:38;100553.44;;;0.40;100.00
42859;BME280;28505;56.970;40.998;2023-04-30T03:07:01;100560.53;;;0.53;100.00
42859;BME280;28505;56.970;40.998;2023-04-30T03:12:24;100564.22;;;0.45;100.00
42859;BME280;28505;56.970;40.998;2023-04-30T03:17:46;100548.72;;;0.42;100.00
42859;BME280;28505;56.970;40.998;2023-04-30T03:23:08;100562.53;;;0.58;100.00
42859;BME280;28505;56.970;40.998;2023-04-30T03:28:31;100547.00;;;0.61;100.00
42859;BME280;28505;56.970;40.998;2023-04-30T03:33:53;100532.25;;;0.72;100.00
42859;BME280;28505;56.970;40.998;2023-04-30T03:39:19;100549.44;;;0.94;100.00
42859;BME280;28505;56.970;40.998;2023-04-30T03:44:40;100551.47;;;0.99;100.00
42859;BME280;28505;56.970;40.998;2023-04-30T03:50:03;100552.19;;;1.13;100.00
42859;BME280;28505;56.970;40.998;2023-04-30T03:55:29;100551.91;;;1.21;100.00
42859;BME280;28505;56.970;40.998;2023-04-30T04:00:52;100544.78;;;1.40;100.00
42859;BME280;28505;56.970;40.998;2023-04-30T04:06:15;100531.75;;;1.57;100.00
42859;BME280;28505;56.970;40.998;2023-04-30T04:11:40;100538.19;;;1.86;100.00
42859;BME280;28505;56.970;40.998;2023-04-30T04:17:03;100539.53;;;2.14;100.00
42859;BME280;28505;56.970;40.998;2023-04-30T04:22:28;100537.22;;;2.36;100.00
42859;BME280;28505;56.970;40.998;2023-04-30T04:27:50;100544.06;;;2.73;100.00
42859;BME280;28505;56.970;40.998;2023-04-30T04:33:12;100520.53;;;3.59;100.00
42859;BME280;28505;56.970;40.998;2023-04-30T04:38:37;100523.44;;;5.12;100.00
42859;BME280;28505;56.970;40.998;2023-04-30T04:43:59;100522.56;;;6.01;100.00
42859;BME280;28505;56.970;40.998;2023-04-30T04:49:23;100504.31;;;6.42;100.00
42859;BME280;28505;56.970;40.998;2023-04-30T04:54:47;100507.72;;;6.92;100.00
42859;BME280;28505;56.970;40.998;2023-04-30T05:00:12;100506.75;;;7.40;100.00
42859;BME280;28505;56.970;40.998;2023-04-30T05:05:35;100488.81;;;7.98;100.00
42859;BME280;28505;56.970;40.998;2023-04-30T05:10:59;100501.63;;;8.64;100.00
42859;BME280;28505;56.970;40.998;2023-04-30T05:16:22;100490.09;;;9.10;100.00
42859;BME280;28505;56.970;40.998;2023-04-30T05:21:46;100493.72;;;9.70;100.00
42859;BME280;28505;56.970;40.998;2023-04-30T05:27:10;100488.81;;;9.93;100.00
42859;BME280;28505;56.970;40.998;2023-04-30T05:32:34;100505.66;;;10.24;100.00
42859;BME280;28505;56.970;40.998;2023-04-30T05:37:57;100506.22;;;10.70;100.00
42859;BME280;28505;56.970;40.998;2023-04-30T05:43:20;100497.88;;;11.01;100.00
42859;BME280;28505;56.970;40.998;2023-04-30T05:48:43;100506.75;;;11.36;100.00
42859;BME280;28505;56.970;40.998;2023-04-30T05:54:06;100512.34;;;11.68;100.00
42859;BME280;28505;56.970;40.998;2023-04-30T05:59:29;100500.72;;;11.97;100.00
42859;BME280;28505;56.970;40.998;2023-04-30T06:04:52;100498.91;;;11.63;100.00
42859;BME280;28505;56.970;40.998;2023-04-30T06:10:16;100500.88;;;11.82;100.00
42859;BME280;28505;56.970;40.998;2023-04-30T06:15:41;100505.59;;;11.95;100.00
42859;BME280;28505;56.970;40.998;2023-04-30T06:21:04;100504.38;;;11.82;100.00
42859;BME280;28505;56.970;40.998;2023-04-30T06:26:27;100495.66;;;11.90;100.00
42859;BME280;28505;56.970;40.998;2023-04-30T06:31:51;100503.75;;;12.14;100.00
42859;BME280;28505;56.970;40.998;2023-04-30T06:37:15;100500.56;;;12.50;100.00
42859;BME280;28505;56.970;40.998;2023-04-30T06:42:39;100500.28;;;12.84;100.00
42859;BME280;28505;56.970;40.998;2023-04-30T06:48:02;100513.06;;;12.98;100.00
42859;BME280;28505;56.970;40.998;2023-04-30T06:53:27;100491.16;;;12.80;100.00
42859;BME280;28505;56.970;40.998;2023-04-30T06:58:50;100497.31;;;12.67;100.00
42859;BME280;28505;56.970;40.998;2023-04-30T07:04:15;100485.53;;;12.96;100.00
42859;BME280;28505;56.970;40.998;2023-04-30T07:09:41;100480.34;;;13.13;100.00
42859;BME280;28505;56.970;40.998;2023-04-30T07:15:07;100476.00;;;13.31;100.00
42859;BME280;28505;56.970;40.998;2023-04-30T07:20:34;100467.38;;;13.29;100.00
42859;BME280;28505;56.970;40.998;2023-04-30T07:26:02;100447.16;;;13.54;100.00
42859;BME280;28505;56.970;40.998;2023-04-30T07:31:30;100450.56;;;13.73;100.00
42859;BME280;28505;56.970;40.998;2023-04-30T07:36:57;100451.72;;;13.26;100.00
42859;BME280;28505;56.970;40.998;2023-04-30T07:42:24;100441.84;;;13.16;100.00
42859;BME280;28505;56.970;40.998;2023-04-30T07:47:50;100434.09;;;13.42;100.00
42859;BME280;28505;56.970;40.998;2023-04-30T07:53:16;100439.31;;;13.52;100.00
42859;BME280;28505;56.970;40.998;2023-04-30T07:58:39;100413.94;;;13.48;100.00
42859;BME280;28505;56.970;40.998;2023-04-30T08:04:05;100421.63;;;13.69;100.00
42859;BME280;28505;56.970;40.998;2023-04-30T08:09:29;100413.78;;;13.95;100.00
42859;BME280;28505;56.970;40.998;2023-04-30T08:15:02;100406.06;;;13.88;100.00
42859;BME280;28505;56.970;40.998;2023-04-30T08:20:37;100404.72;;;13.99;100.00
42859;BME280;28505;56.970;40.998;2023-04-30T08:26:02;100383.03;;;13.99;98.17
42859;BME280;28505;56.970;40.998;2023-04-30T08:31:25;100380.22;;;14.04;100.00
42859;BME280;28505;56.970;40.998;2023-04-30T08:36:47;100370.16;;;14.05;100.00
42859;BME280;28505;56.970;40.998;2023-04-30T08:42:13;100369.28;;;13.73;72.83
42859;BME280;28505;56.970;40.998;2023-04-30T08:47:36;100375.69;;;13.77;100.00
42859;BME280;28505;56.970;40.998;2023-04-30T08:53:00;100368.03;;;13.79;96.67
42859;BME280;28505;56.970;40.998;2023-04-30T08:58:25;100356.94;;;14.03;85.31
42859;BME280;28505;56.970;40.998;2023-04-30T09:03:48;100350.50;;;13.99;89.58
42859;BME280;28505;56.970;40.998;2023-04-30T09:09:14;100335.00;;;14.14;100.00
42859;BME280;28505;56.970;40.998;2023-04-30T09:14:40;100325.03;;;14.00;85.05
42859;BME280;28505;56.970;40.998;2023-04-30T09:20:12;100327.13;;;14.03;86.42
42859;BME280;28505;56.970;40.998;2023-04-30T09:25:40;100333.38;;;13.90;94.70
42859;BME280;28505;56.970;40.998;2023-04-30T09:31:19;100316.81;;;13.92;100.00
42859;BME280;28505;56.970;40.998;2023-04-30T09:36:53;100285.41;;;13.91;72.69
42859;BME280;28505;56.970;40.998;2023-04-30T09:42:20;100295.38;;;13.81;97.29
42859;BME280;28505;56.970;40.998;2023-04-30T09:47:43;100269.63;;;13.70;94.69
42859;BME280;28505;56.970;40.998;2023-04-30T09:53:08;100252.00;;;13.59;99.50
42859;BME280;28505;56.970;40.998;2023-04-30T09:58:35;100242.25;;;13.58;100.00
42859;BME280;28505;56.970;40.998;2023-04-30T10:04:00;100234.19;;;13.44;100.00
42859;BME280;28505;56.970;40.998;2023-04-30T10:09:28;100249.41;;;13.54;100.00
42859;BME280;28505;56.970;40.998;2023-04-30T10:15:05;100236.53;;;13.59;100.00
42859;BME280;28505;56.970;40.998;2023-04-30T10:20:34;100232.97;;;13.73;100.00
42859;BME280;28505;56.970;40.998;2023-04-30T10:26:00;100229.97;;;13.97;100.00
42859;BME280;28505;56.970;40.998;2023-04-30T10:31:27;100234.44;;;14.01;100.00
42859;BME280;28505;56.970;40.998;2023-04-30T10:37:04;100236.25;;;14.06;100.00
42859;BME280;28505;56.970;40.998;2023-04-30T10:42:34;100231.44;;;14.03;92.57
42859;BME280;28505;56.970;40.998;2023-04-30T10:47:57;100237.72;;;13.90;100.00
42859;BME280;28505;56.970;40.998;2023-04-30T10:53:23;100236.00;;;13.94;96.69
42859;BME280;28505;56.970;40.998;2023-04-30T10:58:50;100229.28;;;14.14;100.00
42859;BME280;28505;56.970;40.998;2023-04-30T11:04:19;100197.22;;;14.16;92.74
42859;BME280;28505;56.970;40.998;2023-04-30T11:09:47;100219.13;;;14.28;98.35
42859;BME280;28505;56.970;40.998;2023-04-30T11:15:38;100170.09;;;13.85;88.01
42859;BME280;28505;56.970;40.998;2023-04-30T11:21:01;100172.97;;;13.88;90.01
42859;BME280;28505;56.970;40.998;2023-04-30T11:26:28;100148.69;;;13.74;100.00
42859;BME280;28505;56.970;40.998;2023-04-30T11:32:04;100157.66;;;13.84;100.00
42859;BME280;28505;56.970;40.998;2023-04-30T11:37:30;100137.97;;;13.69;100.00
42859;BME280;28505;56.970;40.998;2023-04-30T11:42:57;100103.94;;;13.32;100.00
42859;BME280;28505;56.970;40.998;2023-04-30T11:48:22;100119.06;;;13.33;100.00
42859;BME280;28505;56.970;40.998;2023-04-30T11:53:48;100127.63;;;13.49;100.00
42859;BME280;28505;56.970;40.998;2023-04-30T11:59:18;100113.91;;;13.45;100.00
42859;BME280;28505;56.970;40.998;2023-04-30T12:04:43;100120.75;;;13.43;100.00
42859;BME280;28505;56.970;40.998;2023-04-30T12:10:11;100093.72;;;13.29;100.00
42859;BME280;28505;56.970;40.998;2023-04-30T12:15:41;100085.47;;;13.34;100.00
42859;BME280;28505;56.970;40.998;2023-04-30T12:21:07;100089.22;;;13.47;100.00
42859;BME280;28505;56.970;40.998;2023-04-30T12:26:37;100085.59;;;13.51;100.00
42859;BME280;28505;56.970;40.998;2023-04-30T12:32:04;100086.06;;;13.53;100.00
42859;BME280;28505;56.970;40.998;2023-04-30T12:37:31;100065.72;;;13.33;97.16
42859;BME280;28505;56.970;40.998;2023-04-30T12:43:07;100061.09;;;13.11;89.76
42859;BME280;28505;56.970;40.998;2023-04-30T12:48:43;100039.72;;;12.87;97.55
42859;BME280;28505;56.970;40.998;2023-04-30T12:54:18;100044.53;;;12.91;100.00
42859;BME280;28505;56.970;40.998;2023-04-30T12:59:59;100051.13;;;12.98;100.00
42859;BME280;28505;56.970;40.998;2023-04-30T13:05:26;100005.22;;;12.71;100.00
42859;BME280;28505;56.970;40.998;2023-04-30T13:10:51;100020.78;;;12.87;94.92
42859;BME280;28505;56.970;40.998;2023-04-30T13:16:15;100007.69;;;12.81;96.36
42859;BME280;28505;56.970;40.998;2023-04-30T13:21:40;99999.72;;;12.76;88.63
42859;BME280;28505;56.970;40.998;2023-04-30T13:27:05;99996.06;;;12.80;92.85
42859;BME280;28505;56.970;40.998;2023-04-30T13:32:30;99993.41;;;12.67;91.11
42859;BME280;28505;56.970;40.998;2023-04-30T13:37:58;100007.03;;;12.61;89.24
42859;BME280;28505;56.970;40.998;2023-04-30T13:43:24;99988.78;;;12.45;89.49
42859;BME280;28505;56.970;40.998;2023-04-30T13:48:50;99978.78;;;12.31;96.99
42859;BME280;28505;56.970;40.998;2023-04-30T13:54:21;100024.25;;;12.29;94.98
42859;BME280;28505;56.970;40.998;2023-04-30T13:59:49;100014.78;;;11.90;83.16
42859;BME280;28505;56.970;40.998;2023-04-30T14:05:15;100003.66;;;11.64;78.42
42859;BME280;28505;56.970;40.998;2023-04-30T14:10:41;100028.09;;;11.54;71.52
42859;BME280;28505;56.970;40.998;2023-04-30T14:16:08;100026.38;;;11.31;65.14
42859;BME280;28505;56.970;40.998;2023-04-30T14:21:36;100020.94;;;11.17;66.19
42859;BME280;28505;56.970;40.998;2023-04-30T14:27:03;100030.75;;;10.75;76.18
42859;BME280;28505;56.970;40.998;2023-04-30T14:32:30;100033.91;;;10.20;91.56
42859;BME280;28505;56.970;40.998;2023-04-30T14:37:59;100026.28;;;9.79;100.00
42859;BME280;28505;56.970;40.998;2023-04-30T14:43:26;100019.25;;;9.30;100.00
42859;BME280;28505;56.970;40.998;2023-04-30T14:48:48;100031.88;;;9.01;100.00
42859;BME280;28505;56.970;40.998;2023-04-30T14:54:10;100019.22;;;8.67;100.00
42859;BME280;28505;56.970;40.998;2023-04-30T14:59:33;100016.06;;;8.55;100.00
42859;BME280;28505;56.970;40.998;2023-04-30T15:04:56;100018.78;;;8.44;100.00
42859;BME280;28505;56.970;40.998;2023-04-30T15:10:18;100009.69;;;8.35;100.00
42859;BME280;28505;56.970;40.998;2023-04-30T15:15:40;100006.22;;;8.30;100.00
42859;BME280;28505;56.970;40.998;2023-04-30T15:21:03;99978.06;;;8.17;100.00
42859;BME280;28505;56.970;40.998;2023-04-30T15:26:27;99982.91;;;8.20;100.00
42859;BME280;28505;56.970;40.998;2023-04-30T15:31:49;99965.75;;;8.11;100.00
42859;BME280;28505;56.970;40.998;2023-04-30T15:37:17;99950.25;;;7.97;100.00
42859;BME280;28505;56.970;40.998;2023-04-30T15:42:43;99952.97;;;7.92;100.00
42859;BME280;28505;56.970;40.998;2023-04-30T15:48:10;99954.31;;;7.95;100.00
42859;BME280;28505;56.970;40.998;2023-04-30T15:53:36;99967.44;;;7.96;100.00
42859;BME280;28505;56.970;40.998;2023-04-30T15:59:01;99942.78;;;7.84;100.00
42859;BME280;28505;56.970;40.998;2023-04-30T16:04:26;99914.19;;;7.59;100.00
42859;BME280;28505;56.970;40.998;2023-04-30T16:09:52;99887.13;;;7.56;100.00
42859;BME280;28505;56.970;40.998;2023-04-30T16:15:19;99865.41;;;7.47;100.00
42859;BME280;28505;56.970;40.998;2023-04-30T16:20:47;99843.22;;;7.31;100.00
42859;BME280;28505;56.970;40.998;2023-04-30T16:26:12;99850.72;;;7.39;100.00
42859;BME280;28505;56.970;40.998;2023-04-30T16:31:40;99859.56;;;7.40;100.00
42859;BME280;28505;56.970;40.998;2023-04-30T16:37:08;99885.00;;;7.47;100.00
42859;BME280;28505;56.970;40.998;2023-04-30T16:42:34;99882.84;;;7.44;100.00
42859;BME280;28505;56.970;40.998;2023-04-30T16:48:00;99857.41;;;7.32;100.00
42859;BME280;28505;56.970;40.998;2023-04-30T16:53:31;99887.97;;;7.46;100.00
42859;BME280;28505;56.970;40.998;2023-04-30T16:58:59;99881.81;;;7.40;100.00
42859;BME280;28505;56.970;40.998;2023-04-30T17:04:26;99851.31;;;7.21;100.00
42859;BME280;28505;56.970;40.998;2023-04-30T17:09:56;99842.72;;;7.24;100.00
42859;BME280;28505;56.970;40.998;2023-04-30T17:15:22;99793.16;;;7.11;100.00
42859;BME280;28505;56.970;40.998;2023-04-30T17:20:53;99770.41;;;7.03;100.00
42859;BME280;28505;56.970;40.998;2023-04-30T17:26:20;99770.66;;;7.07;100.00
42859;BME280;28505;56.970;40.998;2023-04-30T17:31:47;99737.69;;;7.07;100.00
42859;BME280;28505;56.970;40.998;2023-04-30T17:37:18;99723.78;;;6.99;100.00
42859;BME280;28505;56.970;40.998;2023-04-30T17:42:44;99708.78;;;6.98;100.00
42859;BME280;28505;56.970;40.998;2023-04-30T17:48:12;99668.09;;;6.86;100.00
42859;BME280;28505;56.970;40.998;2023-04-30T17:53:38;99637.00;;;6.90;100.00
42859;BME280;28505;56.970;40.998;2023-04-30T17:59:03;99580.88;;;6.65;100.00
42859;BME280;28505;56.970;40.998;2023-04-30T18:04:32;99602.25;;;6.75;100.00
42859;BME280;28505;56.970;40.998;2023-04-30T18:10:00;99620.41;;;6.83;100.00
42859;BME280;28505;56.970;40.998;2023-04-30T18:15:29;99606.50;;;6.81;100.00
42859;BME280;28505;56.970;40.998;2023-04-30T18:20:56;99610.25;;;6.80;100.00
42859;BME280;28505;56.970;40.998;2023-04-30T18:26:27;99577.53;;;6.83;100.00
42859;BME280;28505;56.970;40.998;2023-04-30T18:31:55;99579.13;;;6.89;100.00
42859;BME280;28505;56.970;40.998;2023-04-30T18:37:22;99556.66;;;6.80;100.00
42859;BME280;28505;56.970;40.998;2023-04-30T18:42:50;99560.13;;;6.86;100.00
42859;BME280;28505;56.970;40.998;2023-04-30T18:48:16;99529.31;;;6.83;100.00
42859;BME280;28505;56.970;40.998;2023-04-30T18:53:43;99517.63;;;6.74;100.00
42859;BME280;28505;56.970;40.998;2023-04-30T18:59:12;99529.59;;;6.87;100.00
42859;BME280;28505;56.970;40.998;2023-04-30T19:04:41;99518.88;;;6.87;100.00
42859;BME280;28505;56.970;40.998;2023-04-30T19:10:08;99508.94;;;6.87;100.00
42859;BME280;28505;56.970;40.998;2023-04-30T19:15:33;99478.97;;;6.80;100.00
42859;BME280;28505;56.970;40.998;2023-04-30T19:20:59;99459.50;;;6.69;100.00
42859;BME280;28505;56.970;40.998;2023-04-30T19:26:25;99445.56;;;6.72;100.00
42859;BME280;28505;56.970;40.998;2023-04-30T19:31:52;99423.88;;;6.69;100.00
42859;BME280;28505;56.970;40.998;2023-04-30T19:37:16;99401.69;;;6.63;100.00
42859;BME280;28505;56.970;40.998;2023-04-30T19:42:42;99395.53;;;6.63;100.00
42859;BME280;28505;56.970;40.998;2023-04-30T19:48:08;99388.03;;;6.65;100.00
42859;BME280;28505;56.970;40.998;2023-04-30T19:53:34;99396.06;;;6.65;100.00
42859;BME280;28505;56.970;40.998;2023-04-30T19:58:59;99398.19;;;6.68;100.00
42859;BME280;28505;56.970;40.998;2023-04-30T20:04:26;99388.84;;;6.65;100.00
42859;BME280;28505;56.970;40.998;2023-04-30T20:09:52;99370.63;;;6.62;100.00
42859;BME280;28505;56.970;40.998;2023-04-30T20:15:19;99352.44;;;6.59;100.00
42859;BME280;28505;56.970;40.998;2023-04-30T20:20:45;99304.00;;;6.55;100.00
42859;BME280;28505;56.970;40.998;2023-04-30T20:26:11;99289.88;;;6.50;100.00
42859;BME280;28505;56.970;40.998;2023-04-30T20:31:36;99278.59;;;6.53;100.00
42859;BME280;28505;56.970;40.998;2023-04-30T20:37:00;99287.19;;;6.50;100.00
42859;BME280;28505;56.970;40.998;2023-04-30T20:42:28;99272.22;;;6.49;100.00
42859;BME280;28505;56.970;40.998;2023-04-30T20:47:53;99238.75;;;6.46;100.00
42859;BME280;28505;56.970;40.998;2023-04-30T20:53:20;99216.59;;;6.41;100.00
42859;BME280;28505;56.970;40.998;2023-04-30T20:58:46;99201.69;;;6.35;100.00
42859;BME280;28505;56.970;40.998;2023-04-30T21:04:14;99214.44;;;6.43;100.00
42859;BME280;28505;56.970;40.998;2023-04-30T21:09:42;99227.28;;;6.41;100.00
42859;BME280;28505;56.970;40.998;2023-04-30T21:15:09;99228.91;;;6.42;100.00
42859;BME280;28505;56.970;40.998;2023-04-30T21:20:36;99233.72;;;6.45;100.00
42859;BME280;28505;56.970;40.998;2023-04-30T21:26:02;99221.56;;;6.52;100.00
42859;BME280;28505;56.970;40.998;2023-04-30T21:31:29;99211.72;;;6.48;100.00
42859;BME280;28505;56.970;40.998;2023-04-30T21:36:55;99202.81;;;6.52;100.00
42859;BME280;28505;56.970;40.998;2023-04-30T21:42:21;99184.13;;;6.47;100.00
42859;BME280;28505;56.970;40.998;2023-04-30T21:47:47;99175.25;;;6.52;100.00
42859;BME280;28505;56.970;40.998;2023-04-30T21:53:14;99156.78;;;6.50;100.00
42859;BME280;28505;56.970;40.998;2023-04-30T21:58:42;99125.56;;;6.41;100.00
42859;BME280;28505;56.970;40.998;2023-04-30T22:04:11;99144.34;;;6.60;100.00
42859;BME280;28505;56.970;40.998;2023-04-30T22:09:44;99124.59;;;6.55;100.00
42859;BME280;28505;56.970;40.998;2023-04-30T22:15:15;99104.03;;;6.51;100.00
42859;BME280;28505;56.970;40.998;2023-04-30T22:20:42;99096.28;;;6.49;100.00
42859;BME280;28505;56.970;40.998;2023-04-30T22:26:07;99094.34;;;6.55;100.00
42859;BME280;28505;56.970;40.998;2023-04-30T22:31:34;99087.69;;;6.52;100.00
42859;BME280;28505;56.970;40.998;2023-04-30T22:36:59;99070.53;;;6.53;100.00
42859;BME280;28505;56.970;40.998;2023-04-30T22:42:24;99056.91;;;6.50;100.00
42859;BME280;28505;56.970;40.998;2023-04-30T22:47:49;99048.09;;;6.49;100.00
42859;BME280;28505;56.970;40.998;2023-04-30T22:53:19;99037.38;;;6.49;100.00
42859;BME280;28505;56.970;40.998;2023-04-30T22:58:45;99039.47;;;6.52;100.00
42859;BME280;28505;56.970;40.998;2023-04-30T23:04:12;99003.81;;;6.38;100.00
42859;BME280;28505;56.970;40.998;2023-04-30T23:09:37;99002.72;;;6.39;100.00
42859;BME280;28505;56.970;40.998;2023-04-30T23:15:04;98989.75;;;6.46;100.00
42859;BME280;28505;56.970;40.998;2023-04-30T23:20:31;99010.81;;;6.53;100.00
42859;BME280;28505;56.970;40.998;2023-04-30T23:25:57;98983.47;;;6.37;100.00
42859;BME280;28505;56.970;40.998;2023-04-30T23:31:23;98975.94;;;6.39;100.00
42859;BME280;28505;56.970;40.998;2023-04-30T23:36:49;98987.66;;;6.43;100.00
42859;BME280;28505;56.970;40.998;2023-04-30T23:42:15;98986.00;;;6.47;100.00
42859;BME280;28505;56.970;40.998;2023-04-30T23:47:41;98977.97;;;6.47;100.00
42859;BME280;28505;56.970;40.998;2023-04-30T23:53:05;98975.22;;;6.52;100.00
42859;BME280;28505;56.970;40.998;2023-04-30T23:58:33;98976.44;;;6.60;100.00
